Time;durP1;ratioP1;P1;durP2;ratioP2;P2;SDS_P1;SDS_P2;PMS_P1;PMS_P2;Temp;Humidity;BMP_temperature;BMP_pressure;BME280_temperature;BME280_humidity;BME280_pressure;Samples;Min_cycle;Max_cycle;Signal;HPM_P1;HPM_P2
2022/08/21 00:00:09;;;;;;;1.42;1.33;;;;;;;;;;4158999;28;20099;-40
2022/08/21 00:02:21;;;;;;;1.58;1.20;;;;;;;;;;4155910;28;20562;-41
2022/08/21 00:04:23;;;;;;;1.35;1.20;;;;;;;;;;4149163;28;20054;-40
2022/08/21 00:06:24;;;;;;;1.10;1.00;;;;;;;;;;4149374;28;20085;-39
2022/08/21 00:08:25;;;;;;;1.40;1.30;;;;;;;;;;4160700;28;20084;-40
2022/08/21 00:10:27;;;;;;;1.67;1.30;;;;;;;;;;4163733;28;20053;-40
2022/08/21 00:12:28;;;;;;;1.10;1.00;;;;;;;;;;4161973;28;20111;-40
2022/08/21 00:14:29;;;;;;;1.73;1.23;;;;;;;;;;4165494;28;20049;-39
2022/08/21 00:16:31;;;;;;;1.25;1.08;;;;;;;;;;4164059;28;20456;-40
2022/08/21 00:18:33;;;;;;;1.27;1.02;;;;;;;;;;4163863;28;20092;-40
2022/08/21 00:20:35;;;;;;;1.00;1.00;;;;;;;;;;4165448;28;20065;-40
2022/08/21 00:22:36;;;;;;;0.80;0.80;;;;;;;;;;4163911;28;20414;-40
2022/08/21 00:24:37;;;;;;;1.00;0.90;;;;;;;;;;4164438;28;20099;-39
2022/08/21 00:26:38;;;;;;;1.08;1.08;;;;;;;;;;4165378;28;20123;-39
2022/08/21 00:28:40;;;;;;;1.23;1.13;;;;;;;;;;4147114;28;20065;-40
2022/08/21 00:30:42;;;;;;;1.30;1.20;;;;;;;;;;4165197;28;20111;-40
2022/08/21 00:32:43;;;;;;;1.10;1.00;;;;;;;;;;4164948;28;20053;-40
2022/08/21 00:34:45;;;;;;;1.77;1.40;;;;;;;;;;4164891;28;20049;-40
2022/08/21 00:36:46;;;;;;;1.35;1.25;;;;;;;;;;4163793;28;20053;-40
2022/08/21 00:38:47;;;;;;;2.00;1.15;;;;;;;;;;4164887;28;20496;-40
2022/08/21 00:40:55;;;;;;;1.38;1.20;;;;;;;;;;4163292;28;20125;-40
2022/08/21 00:42:57;;;;;;;0.93;0.93;;;;;;;;;;4164426;28;20053;-40
2022/08/21 00:44:58;;;;;;;0.95;0.90;;;;;;;;;;4165110;28;20053;-40
2022/08/21 00:46:59;;;;;;;1.00;1.00;;;;;;;;;;4164856;28;20432;-40
2022/08/21 00:49:00;;;;;;;1.20;1.10;;;;;;;;;;4164809;28;20107;-40
2022/08/21 00:51:09;;;;;;;2.00;1.20;;;;;;;;;;4164858;28;20334;-40
2022/08/21 00:53:10;;;;;;;1.15;1.00;;;;;;;;;;4164683;28;20097;-40
2022/08/21 00:55:12;;;;;;;0.93;0.93;;;;;;;;;;4164849;28;20061;-41
2022/08/21 00:57:17;;;;;;;0.98;0.88;;;;;;;;;;4163406;28;20092;-41
2022/08/21 00:59:20;;;;;;;1.08;0.88;;;;;;;;;;4161749;28;20060;-41
2022/08/21 01:01:21;;;;;;;1.15;1.05;;;;;;;;;;4144876;28;20136;-42
2022/08/21 01:03:25;;;;;;;1.25;1.08;;;;;;;;;;4161216;28;20187;-40
2022/08/21 01:05:26;;;;;;;1.10;0.88;;;;;;;;;;4162569;28;20603;-40
2022/08/21 01:07:27;;;;;;;1.38;1.27;;;;;;;;;;4162489;28;20456;-40
2022/08/21 01:09:28;;;;;;;1.27;1.00;;;;;;;;;;4162652;28;20054;-40
2022/08/21 01:11:30;;;;;;;1.40;1.15;;;;;;;;;;4161930;28;20053;-40
2022/08/21 01:13:36;;;;;;;1.23;1.00;;;;;;;;;;4162150;28;20058;-40
2022/08/21 01:15:39;;;;;;;1.20;1.10;;;;;;;;;;4162537;28;20061;-41
2022/08/21 01:17:41;;;;;;;1.08;0.98;;;;;;;;;;4160052;28;20065;-41
2022/08/21 01:19:42;;;;;;;1.10;0.90;;;;;;;;;;4162381;28;20558;-41
2022/08/21 01:21:44;;;;;;;1.45;1.00;;;;;;;;;;4162470;28;20057;-41
2022/08/21 01:23:49;;;;;;;1.10;1.00;;;;;;;;;;4161952;28;20449;-41
2022/08/21 01:25:50;;;;;;;1.10;1.00;;;;;;;;;;4159514;28;20561;-40
2022/08/21 01:27:51;;;;;;;1.25;1.15;;;;;;;;;;4161818;28;20061;-40
2022/08/21 01:29:57;;;;;;;0.93;0.90;;;;;;;;;;4162355;28;20064;-40
2022/08/21 01:32:01;;;;;;;1.13;1.00;;;;;;;;;;4162888;28;20091;-40
2022/08/21 01:34:01;;;;;;;1.45;1.35;;;;;;;;;;4160637;28;20060;-40
2022/08/21 01:36:03;;;;;;;0.93;0.90;;;;;;;;;;4161891;28;20060;-40
2022/08/21 01:38:04;;;;;;;1.10;1.00;;;;;;;;;;4162112;28;20061;-40
2022/08/21 01:40:07;;;;;;;1.05;0.95;;;;;;;;;;4162341;28;20531;-40
2022/08/21 01:42:08;;;;;;;0.95;0.95;;;;;;;;;;4162309;28;20456;-42
2022/08/21 01:44:10;;;;;;;0.98;0.98;;;;;;;;;;4161671;28;20144;-41
2022/08/21 01:46:11;;;;;;;1.08;0.98;;;;;;;;;;4162103;28;20073;-41
2022/08/21 01:48:13;;;;;;;0.88;0.88;;;;;;;;;;4160938;28;20057;-42
2022/08/21 01:50:17;;;;;;;0.68;0.68;;;;;;;;;;4163809;28;20057;-42
2022/08/21 01:52:19;;;;;;;1.10;1.00;;;;;;;;;;4163865;28;20057;-42
2022/08/21 01:54:20;;;;;;;1.02;0.88;;;;;;;;;;4164257;28;20049;-41
2022/08/21 01:56:21;;;;;;;1.23;0.90;;;;;;;;;;4162625;28;20455;-42
2022/08/21 01:58:22;;;;;;;1.20;1.10;;;;;;;;;;4161919;28;20057;-40
2022/08/21 02:00:24;;;;;;;1.13;0.90;;;;;;;;;;4163417;28;20081;-42
2022/08/21 02:02:25;;;;;;;1.20;0.90;;;;;;;;;;4163813;28;20119;-41
2022/08/21 02:04:26;;;;;;;0.90;0.90;;;;;;;;;;4163611;28;20652;-41
2022/08/21 02:06:28;;;;;;;1.48;1.20;;;;;;;;;;4164159;28;20053;-41
2022/08/21 02:08:29;;;;;;;0.82;0.82;;;;;;;;;;4163607;28;20430;-42
2022/08/21 02:10:31;;;;;;;1.10;0.93;;;;;;;;;;4163528;28;20053;-41
2022/08/21 02:12:33;;;;;;;1.15;1.00;;;;;;;;;;4161836;28;20061;-40
2022/08/21 02:14:35;;;;;;;2.17;1.10;;;;;;;;;;4162057;28;20049;-41
2022/08/21 02:16:36;;;;;;;0.98;0.85;;;;;;;;;;4163482;28;20136;-41
2022/08/21 02:18:37;;;;;;;1.83;1.10;;;;;;;;;;4163746;28;20107;-41
2022/08/21 02:20:43;;;;;;;2.03;0.93;;;;;;;;;;4161611;28;20107;-41
2022/08/21 02:22:44;;;;;;;0.80;0.80;;;;;;;;;;4161333;28;20108;-41
2022/08/21 02:24:45;;;;;;;1.38;1.00;;;;;;;;;;4163676;28;20048;-41
2022/08/21 02:26:46;;;;;;;1.00;0.90;;;;;;;;;;4163440;28;20058;-41
2022/08/21 02:28:48;;;;;;;1.05;0.95;;;;;;;;;;4162836;28;20496;-41
2022/08/21 02:30:50;;;;;;;0.77;0.77;;;;;;;;;;4163566;28;20083;-42
2022/08/21 02:32:51;;;;;;;1.33;1.10;;;;;;;;;;4161811;28;20109;-41
2022/08/21 02:34:53;;;;;;;0.75;0.75;;;;;;;;;;4157883;28;20057;-41
2022/08/21 02:36:54;;;;;;;0.93;0.93;;;;;;;;;;4162541;28;20045;-42
2022/08/21 02:38:55;;;;;;;1.20;0.85;;;;;;;;;;4161998;28;20058;-41
2022/08/21 02:40:57;;;;;;;0.85;0.80;;;;;;;;;;4163468;28;20116;-40
2022/08/21 02:42:58;;;;;;;1.33;1.23;;;;;;;;;;4161502;28;20060;-40
2022/08/21 02:44:59;;;;;;;0.95;0.90;;;;;;;;;;4163123;28;20421;-40
2022/08/21 02:47:00;;;;;;;0.77;0.70;;;;;;;;;;4163194;28;20068;-41
2022/08/21 02:49:02;;;;;;;1.15;1.00;;;;;;;;;;4153824;28;20472;-41
2022/08/21 02:51:13;;;;;;;1.27;0.85;;;;;;;;;;4153334;28;20108;-41
2022/08/21 02:53:16;;;;;;;1.20;1.10;;;;;;;;;;4144867;28;20069;-42
2022/08/21 02:55:17;;;;;;;0.73;0.73;;;;;;;;;;4144867;28;20058;-42
2022/08/21 02:57:18;;;;;;;2.08;0.93;;;;;;;;;;4144419;28;20058;-41
2022/08/21 02:59:19;;;;;;;0.90;0.90;;;;;;;;;;4144769;28;20092;-40
2022/08/21 03:01:21;;;;;;;2.53;1.00;;;;;;;;;;4144297;28;20061;-40
2022/08/21 03:03:22;;;;;;;0.82;0.82;;;;;;;;;;4144474;28;20060;-40
2022/08/21 03:05:24;;;;;;;1.02;0.90;;;;;;;;;;4144402;28;20049;-40
2022/08/21 03:07:26;;;;;;;1.30;0.95;;;;;;;;;;4143104;28;20206;-41
2022/08/21 03:09:27;;;;;;;0.80;0.80;;;;;;;;;;4157455;28;20112;-41
2022/08/21 03:11:29;;;;;;;1.25;0.90;;;;;;;;;;4160611;28;20471;-41
2022/08/21 03:13:30;;;;;;;1.08;0.95;;;;;;;;;;4162500;28;20053;-40
2022/08/21 03:15:31;;;;;;;0.80;0.80;;;;;;;;;;4163252;28;20653;-40
2022/08/21 03:17:33;;;;;;;1.10;1.00;;;;;;;;;;4162876;28;20088;-40
2022/08/21 03:19:34;;;;;;;1.15;0.85;;;;;;;;;;4160472;28;20053;-40
2022/08/21 03:21:35;;;;;;;1.63;1.00;;;;;;;;;;4162718;28;20064;-40
2022/08/21 03:23:39;;;;;;;1.13;0.90;;;;;;;;;;4151095;28;20065;-40
2022/08/21 03:25:40;;;;;;;0.90;0.90;;;;;;;;;;4144433;28;20120;-41
2022/08/21 03:27:42;;;;;;;1.15;1.00;;;;;;;;;;4144310;28;20062;-40
2022/08/21 03:29:43;;;;;;;0.80;0.80;;;;;;;;;;4157147;28;20057;-41
2022/08/21 03:31:44;;;;;;;1.15;1.05;;;;;;;;;;4160645;28;20404;-40
2022/08/21 03:33:46;;;;;;;1.33;0.80;;;;;;;;;;4160670;28;20509;-41
2022/08/21 03:35:53;;;;;;;1.30;0.95;;;;;;;;;;4163759;28;20119;-42
2022/08/21 03:37:55;;;;;;;0.77;0.77;;;;;;;;;;4160038;28;20058;-41
2022/08/21 03:39:57;;;;;;;1.27;1.00;;;;;;;;;;4165823;28;20489;-41
2022/08/21 03:41:59;;;;;;;1.02;0.85;;;;;;;;;;4164416;28;20382;-41
2022/08/21 03:44:00;;;;;;;0.82;0.82;;;;;;;;;;4165714;28;20046;-40
2022/08/21 03:46:03;;;;;;;1.05;0.95;;;;;;;;;;4166070;28;20057;-42
2022/08/21 03:48:05;;;;;;;1.10;0.80;;;;;;;;;;4165800;28;20064;-40
2022/08/21 03:50:07;;;;;;;0.98;0.93;;;;;;;;;;4165741;28;20053;-40
2022/08/21 03:52:08;;;;;;;0.88;0.88;;;;;;;;;;4165940;28;20485;-40
2022/08/21 03:54:10;;;;;;;1.23;0.82;;;;;;;;;;4165500;28;20489;-40
2022/08/21 03:56:11;;;;;;;0.90;0.80;;;;;;;;;;4165847;28;20057;-41
2022/08/21 03:58:14;;;;;;;1.02;0.93;;;;;;;;;;4165301;28;20493;-41
2022/08/21 04:00:16;;;;;;;0.88;0.70;;;;;;;;;;4165363;28;20103;-41
2022/08/21 04:02:19;;;;;;;0.63;0.63;;;;;;;;;;4165718;28;20053;-41
2022/08/21 04:04:20;;;;;;;0.98;0.88;;;;;;;;;;4165868;28;20072;-41
2022/08/21 04:06:21;;;;;;;1.27;0.93;;;;;;;;;;4165571;28;20567;-41
2022/08/21 04:08:23;;;;;;;2.45;0.90;;;;;;;;;;4165343;28;20057;-41
2022/08/21 04:10:26;;;;;;;0.70;0.70;;;;;;;;;;4165615;28;20054;-46
2022/08/21 04:12:27;;;;;;;1.00;0.75;;;;;;;;;;4164256;28;20061;-41
2022/08/21 04:14:28;;;;;;;0.80;0.80;;;;;;;;;;4165374;28;20057;-41
2022/08/21 04:16:30;;;;;;;1.20;1.08;;;;;;;;;;4165616;28;20054;-41
2022/08/21 04:18:31;;;;;;;0.90;0.82;;;;;;;;;;4165365;28;20123;-40
2022/08/21 04:20:33;;;;;;;1.02;0.95;;;;;;;;;;4147695;28;20490;-41
2022/08/21 04:22:34;;;;;;;1.35;0.70;;;;;;;;;;4165257;28;20054;-41
2022/08/21 04:24:35;;;;;;;0.93;0.88;;;;;;;;;;4165212;28;20127;-41
2022/08/21 04:26:38;;;;;;;0.70;0.70;;;;;;;;;;4165309;28;20069;-40
2022/08/21 04:28:39;;;;;;;0.70;0.70;;;;;;;;;;4164787;28;20107;-40
2022/08/21 04:30:40;;;;;;;0.80;0.73;;;;;;;;;;4165384;28;20049;-41
2022/08/21 04:32:43;;;;;;;0.80;0.80;;;;;;;;;;4163900;28;20650;-41
2022/08/21 04:34:44;;;;;;;1.00;0.90;;;;;;;;;;4164833;28;20469;-41
2022/08/21 04:36:46;;;;;;;0.73;0.73;;;;;;;;;;4164980;28;20062;-41
2022/08/21 04:38:48;;;;;;;1.00;0.80;;;;;;;;;;4165072;28;20061;-41
2022/08/21 04:40:50;;;;;;;1.05;0.90;;;;;;;;;;4165080;28;20531;-41
2022/08/21 04:42:54;;;;;;;0.80;0.70;;;;;;;;;;4163473;28;20115;-41
2022/08/21 04:44:57;;;;;;;0.80;0.80;;;;;;;;;;4163866;28;20196;-41
2022/08/21 04:46:58;;;;;;;0.70;0.70;;;;;;;;;;4164256;28;20053;-41
2022/08/21 04:48:59;;;;;;;1.25;0.77;;;;;;;;;;4163463;28;20057;-42
2022/08/21 04:51:13;;;;;;;0.82;0.80;;;;;;;;;;4163661;28;20475;-41
2022/08/21 04:53:32;;;;;;;1.40;1.30;;;;;;;;;;4164418;28;20440;-40
2022/08/21 04:55:33;;;;;;;0.70;0.60;;;;;;;;;;4165122;28;20054;-40
2022/08/21 04:57:34;;;;;;;0.82;0.82;;;;;;;;;;4164426;28;20124;-41
2022/08/21 04:59:40;;;;;;;0.73;0.73;;;;;;;;;;4163448;28;20587;-41
2022/08/21 05:01:42;;;;;;;1.60;1.00;;;;;;;;;;4165085;28;20053;-41
2022/08/21 05:03:44;;;;;;;0.63;0.57;;;;;;;;;;4163302;28;20412;-41
2022/08/21 05:05:45;;;;;;;1.08;0.90;;;;;;;;;;4163586;28;20049;-40
2022/08/21 05:07:46;;;;;;;0.90;0.85;;;;;;;;;;4164780;28;20095;-40
2022/08/21 05:09:48;;;;;;;1.15;0.70;;;;;;;;;;4164789;28;20111;-41
2022/08/21 05:11:51;;;;;;;0.90;0.80;;;;;;;;;;4164600;28;20069;-40
2022/08/21 05:13:52;;;;;;;0.70;0.70;;;;;;;;;;4164231;28;20099;-40
2022/08/21 05:15:53;;;;;;;0.77;0.77;;;;;;;;;;4164839;28;20099;-40
2022/08/21 05:17:55;;;;;;;0.70;0.70;;;;;;;;;;4164284;28;20057;-41
2022/08/21 05:19:56;;;;;;;0.70;0.70;;;;;;;;;;4164574;28;20095;-40
2022/08/21 05:21:58;;;;;;;1.35;0.90;;;;;;;;;;4164564;28;20103;-40
2022/08/21 05:23:59;;;;;;;0.60;0.60;;;;;;;;;;4164224;28;20092;-40
2022/08/21 05:26:00;;;;;;;0.75;0.70;;;;;;;;;;4164370;28;20053;-40
2022/08/21 05:28:02;;;;;;;1.23;0.80;;;;;;;;;;4163775;28;20520;-41
2022/08/21 05:30:04;;;;;;;0.88;0.88;;;;;;;;;;4164436;28;20054;-40
2022/08/21 05:32:11;;;;;;;0.98;0.70;;;;;;;;;;4163053;28;20088;-40
2022/08/21 05:34:23;;;;;;;0.68;0.68;;;;;;;;;;4164094;28;20485;-41
2022/08/21 05:36:24;;;;;;;0.88;0.80;;;;;;;;;;4164506;28;20087;-40
2022/08/21 05:38:27;;;;;;;0.70;0.70;;;;;;;;;;4164195;28;20123;-40
2022/08/21 05:40:28;;;;;;;0.98;0.88;;;;;;;;;;4164220;28;20076;-40
2022/08/21 05:42:30;;;;;;;1.20;0.80;;;;;;;;;;4162422;28;20516;-40
2022/08/21 05:44:31;;;;;;;1.00;0.50;;;;;;;;;;4164171;28;20473;-41
2022/08/21 05:46:33;;;;;;;1.00;0.60;;;;;;;;;;4163931;28;20049;-40
2022/08/21 05:48:35;;;;;;;0.70;0.70;;;;;;;;;;4164232;28;20057;-40
2022/08/21 05:50:37;;;;;;;1.13;0.80;;;;;;;;;;4163888;28;20132;-40
2022/08/21 05:52:39;;;;;;;0.70;0.70;;;;;;;;;;4163370;28;20049;-40
2022/08/21 05:54:40;;;;;;;0.60;0.60;;;;;;;;;;4163872;28;20096;-40
2022/08/21 05:56:44;;;;;;;1.60;0.65;;;;;;;;;;4162965;28;20058;-41
2022/08/21 05:58:45;;;;;;;0.93;0.63;;;;;;;;;;4163269;28;20058;-40
2022/08/21 06:00:48;;;;;;;0.82;0.80;;;;;;;;;;4152929;28;20053;-40
2022/08/21 06:02:50;;;;;;;1.70;0.80;;;;;;;;;;4147333;28;20065;-40
2022/08/21 06:04:51;;;;;;;1.02;0.93;;;;;;;;;;4147422;28;20481;-40
2022/08/21 06:06:52;;;;;;;1.00;0.70;;;;;;;;;;4145882;28;20113;-40
2022/08/21 06:08:53;;;;;;;1.02;0.63;;;;;;;;;;4147461;28;20053;-41
2022/08/21 06:10:58;;;;;;;0.65;0.57;;;;;;;;;;4147236;28;20442;-40
2022/08/21 06:12:59;;;;;;;1.10;0.63;;;;;;;;;;4146959;28;20054;-40
2022/08/21 06:15:00;;;;;;;0.80;0.80;;;;;;;;;;4147184;28;20046;-40
2022/08/21 06:17:03;;;;;;;0.73;0.70;;;;;;;;;;4147244;28;20062;-40
2022/08/21 06:19:05;;;;;;;0.80;0.70;;;;;;;;;;4147285;28;20057;-41
2022/08/21 06:21:07;;;;;;;1.02;0.80;;;;;;;;;;4147209;28;20053;-40
2022/08/21 06:23:08;;;;;;;0.88;0.60;;;;;;;;;;4145667;28;20108;-40
2022/08/21 06:25:09;;;;;;;1.08;0.80;;;;;;;;;;4147504;28;20049;-40
2022/08/21 06:27:10;;;;;;;0.70;0.50;;;;;;;;;;4147205;28;20057;-40
2022/08/21 06:29:16;;;;;;;0.70;0.70;;;;;;;;;;4146714;28;20115;-40
2022/08/21 06:31:20;;;;;;;0.70;0.70;;;;;;;;;;4147351;28;20160;-40
2022/08/21 06:33:23;;;;;;;1.50;0.90;;;;;;;;;;4146834;28;20124;-40
2022/08/21 06:35:24;;;;;;;1.00;0.70;;;;;;;;;;4146896;28;20335;-40
2022/08/21 06:37:26;;;;;;;0.80;0.80;;;;;;;;;;4146819;28;20053;-40
2022/08/21 06:39:27;;;;;;;1.00;0.60;;;;;;;;;;4146933;28;20108;-40
2022/08/21 06:41:28;;;;;;;0.88;0.50;;;;;;;;;;4146765;28;20543;-41
2022/08/21 06:43:30;;;;;;;0.80;0.77;;;;;;;;;;4146498;28;20049;-41
2022/08/21 06:45:31;;;;;;;0.90;0.75;;;;;;;;;;4146751;28;20050;-41
2022/08/21 06:47:32;;;;;;;1.33;0.70;;;;;;;;;;4146628;28;20655;-40
2022/08/21 06:49:34;;;;;;;0.90;0.88;;;;;;;;;;4150658;28;20516;-40
2022/08/21 06:51:35;;;;;;;1.00;0.77;;;;;;;;;;4163151;28;20408;-40
2022/08/21 06:53:37;;;;;;;1.30;0.75;;;;;;;;;;4162799;28;20625;-41
2022/08/21 06:55:39;;;;;;;1.25;0.80;;;;;;;;;;4163131;28;20369;-40
2022/08/21 06:57:40;;;;;;;0.95;0.60;;;;;;;;;;4162761;28;20045;-40
2022/08/21 06:59:41;;;;;;;0.68;0.57;;;;;;;;;;4163191;28;20448;-41
2022/08/21 07:01:43;;;;;;;1.20;0.93;;;;;;;;;;4162765;28;20108;-40
2022/08/21 07:03:44;;;;;;;0.60;0.60;;;;;;;;;;4162597;28;20053;-40
2022/08/21 07:05:45;;;;;;;0.60;0.60;;;;;;;;;;4161564;28;20448;-40
2022/08/21 07:07:46;;;;;;;2.05;0.85;;;;;;;;;;4162785;28;20107;-41
2022/08/21 07:09:48;;;;;;;0.70;0.70;;;;;;;;;;4162395;28;20413;-40
2022/08/21 07:11:52;;;;;;;0.85;0.60;;;;;;;;;;4163167;28;20111;-41
2022/08/21 07:13:54;;;;;;;0.85;0.60;;;;;;;;;;4162371;28;20123;-40
2022/08/21 07:15:55;;;;;;;0.80;0.68;;;;;;;;;;4162763;28;20492;-40
2022/08/21 07:17:57;;;;;;;0.93;0.50;;;;;;;;;;4161514;28;20053;-40
2022/08/21 07:19:58;;;;;;;0.90;0.70;;;;;;;;;;4162934;28;20057;-40
2022/08/21 07:22:01;;;;;;;0.95;0.70;;;;;;;;;;4160885;28;20053;-40
2022/08/21 07:24:02;;;;;;;0.70;0.70;;;;;;;;;;4162759;28;20069;-40
2022/08/21 07:26:04;;;;;;;0.60;0.60;;;;;;;;;;4162608;28;20060;-40
2022/08/21 07:28:05;;;;;;;1.35;0.82;;;;;;;;;;4160479;28;20104;-40
2022/08/21 07:30:07;;;;;;;0.80;0.68;;;;;;;;;;4145297;28;20054;-40
2022/08/21 07:32:07;;;;;;;0.70;0.60;;;;;;;;;;4144928;28;20092;-40
2022/08/21 07:34:09;;;;;;;0.73;0.60;;;;;;;;;;4146470;28;20054;-40
2022/08/21 07:36:11;;;;;;;0.73;0.70;;;;;;;;;;4146696;28;20054;-40
2022/08/21 07:38:12;;;;;;;0.50;0.50;;;;;;;;;;4146332;28;20108;-40
2022/08/21 07:40:15;;;;;;;0.57;0.57;;;;;;;;;;4144952;28;20124;-40
2022/08/21 07:42:16;;;;;;;0.93;0.70;;;;;;;;;;4145939;28;20555;-41
2022/08/21 07:44:17;;;;;;;0.43;0.43;;;;;;;;;;4146296;28;20053;-40
2022/08/21 07:46:19;;;;;;;0.52;0.52;;;;;;;;;;4144936;28;20464;-40
2022/08/21 07:48:23;;;;;;;0.68;0.55;;;;;;;;;;4146140;28;20054;-40
2022/08/21 07:50:25;;;;;;;0.75;0.63;;;;;;;;;;4145042;28;20054;-41
2022/08/21 07:52:26;;;;;;;0.70;0.70;;;;;;;;;;4146576;28;20054;-41
2022/08/21 07:54:27;;;;;;;0.80;0.73;;;;;;;;;;4146432;28;20046;-40
2022/08/21 07:56:30;;;;;;;0.50;0.50;;;;;;;;;;4128574;28;20055;-40
2022/08/21 07:58:32;;;;;;;1.80;0.60;;;;;;;;;;4145726;28;20065;-40
2022/08/21 08:00:34;;;;;;;0.60;0.45;;;;;;;;;;4154575;28;20416;-40
2022/08/21 08:02:35;;;;;;;0.85;0.60;;;;;;;;;;4162435;28;20075;-40
2022/08/21 08:04:36;;;;;;;0.95;0.70;;;;;;;;;;4162460;28;20057;-40
2022/08/21 08:06:37;;;;;;;0.70;0.70;;;;;;;;;;4161182;28;20103;-42
2022/08/21 08:08:40;;;;;;;0.68;0.65;;;;;;;;;;4162380;28;20107;-40
2022/08/21 08:10:42;;;;;;;1.33;0.75;;;;;;;;;;4162522;28;20119;-40
2022/08/21 08:12:44;;;;;;;0.60;0.60;;;;;;;;;;4161829;28;20061;-40
2022/08/21 08:14:45;;;;;;;0.80;0.60;;;;;;;;;;4162314;28;20072;-41
2022/08/21 08:16:47;;;;;;;0.55;0.55;;;;;;;;;;4162381;28;20061;-40
2022/08/21 08:18:48;;;;;;;0.85;0.68;;;;;;;;;;4162407;28;20061;-40
2022/08/21 08:20:49;;;;;;;0.75;0.65;;;;;;;;;;4162728;28;20111;-43
2022/08/21 08:22:50;;;;;;;1.10;0.60;;;;;;;;;;4165282;28;20452;-40
2022/08/21 08:24:53;;;;;;;0.63;0.50;;;;;;;;;;4165400;28;20107;-40
2022/08/21 08:26:55;;;;;;;0.90;0.65;;;;;;;;;;4165457;28;20060;-41
2022/08/21 08:28:56;;;;;;;0.82;0.80;;;;;;;;;;4163728;28;20107;-40
2022/08/21 08:30:59;;;;;;;0.52;0.52;;;;;;;;;;4165029;28;20452;-41
2022/08/21 08:33:00;;;;;;;0.70;0.50;;;;;;;;;;4164886;28;20408;-40
2022/08/21 08:35:04;;;;;;;0.60;0.60;;;;;;;;;;4156583;28;20058;-40
2022/08/21 08:37:07;;;;;;;0.60;0.60;;;;;;;;;;4146887;28;20343;-41
2022/08/21 08:39:08;;;;;;;0.55;0.52;;;;;;;;;;4146746;28;20385;-40
2022/08/21 08:41:14;;;;;;;0.75;0.57;;;;;;;;;;4146847;28;20065;-40
2022/08/21 08:43:15;;;;;;;0.68;0.63;;;;;;;;;;4146603;28;20058;-42
2022/08/21 08:45:21;;;;;;;0.85;0.57;;;;;;;;;;4146811;28;20053;-41
2022/08/21 08:47:24;;;;;;;0.63;0.60;;;;;;;;;;4146574;28;20058;-40
2022/08/21 08:49:58;;;;;;;0.65;0.60;;;;;;;;;;4151046;28;20049;-40
2022/08/21 08:52:05;;;;;;;0.88;0.60;;;;;;;;;;4163305;28;20053;-41
2022/08/21 08:54:14;;;;;;;0.60;0.60;;;;;;;;;;4162900;28;20053;-41
2022/08/21 08:56:28;;;;;;;0.63;0.60;;;;;;;;;;4163392;28;20123;-44
2022/08/21 08:58:36;;;;;;;0.57;0.50;;;;;;;;;;4162249;28;20480;-41
2022/08/21 09:00:38;;;;;;;1.30;0.70;;;;;;;;;;4162904;28;20339;-41
2022/08/21 09:02:41;;;;;;;1.27;0.60;;;;;;;;;;4162653;28;20488;-40
2022/08/21 09:04:44;;;;;;;0.50;0.50;;;;;;;;;;4162682;28;20053;-41
2022/08/21 09:07:03;;;;;;;0.50;0.50;;;;;;;;;;4161667;28;20115;-41
2022/08/21 09:09:15;;;;;;;0.68;0.65;;;;;;;;;;4162796;28;20088;-40
2022/08/21 09:11:45;;;;;;;0.68;0.43;;;;;;;;;;4161116;28;20061;-40
2022/08/21 09:14:02;;;;;;;0.57;0.50;;;;;;;;;;4162083;28;20461;-42
2022/08/21 09:16:29;;;;;;;1.08;0.60;;;;;;;;;;4162777;28;20420;-41
2022/08/21 09:18:54;;;;;;;1.60;0.70;;;;;;;;;;4145098;28;20054;-40
2022/08/21 09:21:09;;;;;;;1.10;0.73;;;;;;;;;;4161502;28;20127;-40
2022/08/21 09:23:17;;;;;;;1.33;0.70;;;;;;;;;;4161083;28;20061;-41
2022/08/21 09:25:23;;;;;;;0.57;0.47;;;;;;;;;;4164828;28;20052;-40
2022/08/21 09:27:25;;;;;;;0.40;0.40;;;;;;;;;;4162839;28;20049;-40
2022/08/21 09:29:30;;;;;;;0.60;0.50;;;;;;;;;;4164264;28;20099;-40
2022/08/21 09:31:34;;;;;;;0.68;0.50;;;;;;;;;;4146888;28;20053;-40
2022/08/21 09:33:35;;;;;;;1.42;0.68;;;;;;;;;;4162317;28;20053;-40
2022/08/21 09:35:48;;;;;;;0.90;0.70;;;;;;;;;;4164515;28;20049;-40
2022/08/21 09:38:01;;;;;;;1.10;0.70;;;;;;;;;;4163012;28;20449;-40
2022/08/21 09:40:18;;;;;;;1.30;0.60;;;;;;;;;;4163393;28;20060;-41
2022/08/21 09:42:28;;;;;;;1.13;0.52;;;;;;;;;;4163894;28;20459;-42
2022/08/21 09:44:33;;;;;;;1.25;0.60;;;;;;;;;;4164213;28;20049;-40
2022/08/21 09:46:36;;;;;;;3.33;0.88;;;;;;;;;;4163017;28;20473;-40
2022/08/21 09:48:46;;;;;;;0.60;0.50;;;;;;;;;;4164313;28;20049;-40
2022/08/21 09:50:49;;;;;;;0.60;0.60;;;;;;;;;;4162875;28;20437;-40
2022/08/21 09:52:54;;;;;;;1.13;0.90;;;;;;;;;;4162911;28;20100;-40
2022/08/21 09:54:56;;;;;;;2.95;0.50;;;;;;;;;;4162745;28;20123;-40
2022/08/21 09:59:33;;;;;;;0.60;0.60;;;;;;;;;;4162840;28;20126;-40
2022/08/21 10:01:43;;;;;;;0.95;0.60;;;;;;;;;;4163819;28;20053;-41
2022/08/21 10:03:44;;;;;;;0.40;0.40;;;;;;;;;;4163918;28;20064;-40
2022/08/21 10:06:01;;;;;;;0.70;0.50;;;;;;;;;;4164109;28;20053;-40
2022/08/21 10:08:04;;;;;;;1.70;0.60;;;;;;;;;;4163729;28;20124;-41
2022/08/21 10:10:09;;;;;;;0.77;0.50;;;;;;;;;;4163818;28;20507;-41
2022/08/21 10:12:23;;;;;;;1.08;0.55;;;;;;;;;;4146106;28;20092;-41
2022/08/21 10:14:54;;;;;;;0.50;0.47;;;;;;;;;;4162232;28;20115;-40
2022/08/21 10:17:11;;;;;;;0.60;0.40;;;;;;;;;;4163307;28;20053;-40
2022/08/21 10:19:32;;;;;;;1.15;0.68;;;;;;;;;;4162322;28;20423;-40
2022/08/21 10:22:02;;;;;;;0.85;0.77;;;;;;;;;;4163713;28;20087;-40
2022/08/21 10:24:31;;;;;;;1.13;0.50;;;;;;;;;;4163482;28;20053;-40
2022/08/21 10:26:47;;;;;;;0.70;0.50;;;;;;;;;;4162233;28;20441;-40
2022/08/21 10:28:47;;;;;;;1.20;0.55;;;;;;;;;;4163208;28;20095;-40
2022/08/21 10:31:13;;;;;;;0.75;0.60;;;;;;;;;;4163353;28;20111;-40
2022/08/21 10:33:40;;;;;;;1.20;0.50;;;;;;;;;;4163353;28;20475;-40
2022/08/21 10:35:55;;;;;;;0.70;0.50;;;;;;;;;;4162126;28;20638;-40
2022/08/21 10:38:38;;;;;;;0.90;0.57;;;;;;;;;;4163470;28;20112;-40
2022/08/21 10:40:54;;;;;;;1.30;0.60;;;;;;;;;;4161935;28;20076;-41
2022/08/21 10:43:30;;;;;;;0.32;0.32;;;;;;;;;;4162666;28;20134;-40
2022/08/21 10:45:47;;;;;;;0.50;0.50;;;;;;;;;;4163037;28;20455;-40
2022/08/21 10:47:53;;;;;;;1.27;0.50;;;;;;;;;;4163033;28;20509;-40
2022/08/21 10:50:31;;;;;;;1.08;0.40;;;;;;;;;;4161839;28;20163;-40
2022/08/21 10:53:00;;;;;;;1.25;0.60;;;;;;;;;;4163465;28;20115;-40
2022/08/21 10:55:26;;;;;;;0.70;0.57;;;;;;;;;;4163130;28;20497;-40
2022/08/21 10:58:08;;;;;;;0.30;0.30;;;;;;;;;;4144944;28;20413;-40
2022/08/21 11:00:14;;;;;;;0.95;0.60;;;;;;;;;;4161351;28;20064;-40
2022/08/21 11:03:02;;;;;;;1.20;0.50;;;;;;;;;;4161743;28;20440;-40
2022/08/21 11:05:15;;;;;;;0.73;0.50;;;;;;;;;;4144712;28;20053;-40
2022/08/21 11:07:25;;;;;;;0.80;0.60;;;;;;;;;;4157267;28;20057;-41
2022/08/21 11:09:27;;;;;;;0.88;0.55;;;;;;;;;;4161961;28;20180;-40
2022/08/21 11:11:35;;;;;;;0.65;0.60;;;;;;;;;;4162926;28;20488;-40
2022/08/21 11:13:41;;;;;;;0.90;0.60;;;;;;;;;;4161372;28;20111;-41
2022/08/21 11:15:55;;;;;;;0.88;0.50;;;;;;;;;;4161598;28;20483;-40
2022/08/21 11:18:17;;;;;;;0.70;0.60;;;;;;;;;;4161545;28;20160;-40
2022/08/21 11:20:29;;;;;;;0.95;0.60;;;;;;;;;;4161873;28;20045;-40
2022/08/21 11:22:56;;;;;;;1.63;0.60;;;;;;;;;;4145287;28;20509;-41
2022/08/21 11:25:18;;;;;;;0.70;0.40;;;;;;;;;;4161556;28;20057;-40
2022/08/21 11:27:37;;;;;;;0.50;0.50;;;;;;;;;;4161320;28;20057;-41
2022/08/21 11:29:39;;;;;;;0.50;0.50;;;;;;;;;;4163003;28;20451;-40
2022/08/21 11:31:56;;;;;;;1.08;0.43;;;;;;;;;;4163136;28;20054;-41
2022/08/21 11:34:33;;;;;;;0.63;0.35;;;;;;;;;;4162615;28;20455;-40
2022/08/21 11:36:43;;;;;;;1.00;0.60;;;;;;;;;;4162763;28;20507;-40
2022/08/21 11:38:58;;;;;;;1.63;0.95;;;;;;;;;;4162938;28;20107;-40
2022/08/21 11:41:37;;;;;;;1.15;0.60;;;;;;;;;;4142217;28;20108;-41
2022/08/21 11:43:54;;;;;;;0.73;0.45;;;;;;;;;;4142670;28;20054;-40
2022/08/21 11:46:01;;;;;;;0.47;0.40;;;;;;;;;;4143181;28;20358;-42
2022/08/21 11:48:21;;;;;;;0.63;0.40;;;;;;;;;;4144641;28;20489;-41
2022/08/21 11:50:31;;;;;;;0.70;0.50;;;;;;;;;;4143010;28;20382;-41
2022/08/21 11:52:37;;;;;;;0.60;0.40;;;;;;;;;;4144032;28;20314;-41
2022/08/21 11:54:43;;;;;;;1.02;0.47;;;;;;;;;;4144275;28;20108;-40
2022/08/21 11:56:47;;;;;;;1.48;0.40;;;;;;;;;;4147603;28;20112;-40
2022/08/21 11:58:53;;;;;;;0.93;0.50;;;;;;;;;;4147224;28;20061;-40
2022/08/21 12:01:06;;;;;;;0.80;0.50;;;;;;;;;;4147400;28;20100;-41
2022/08/21 12:03:27;;;;;;;0.50;0.35;;;;;;;;;;4147277;28;20516;-40
2022/08/21 12:05:42;;;;;;;1.05;0.47;;;;;;;;;;4145960;28;20057;-40
2022/08/21 12:07:44;;;;;;;0.95;0.47;;;;;;;;;;4147081;28;20062;-40
2022/08/21 12:09:56;;;;;;;1.25;0.57;;;;;;;;;;4147296;28;20440;-40
2022/08/21 12:12:05;;;;;;;0.60;0.50;;;;;;;;;;4162809;28;20061;-40
2022/08/21 12:14:06;;;;;;;1.08;0.50;;;;;;;;;;4146928;28;20108;-41
2022/08/21 12:16:14;;;;;;;0.60;0.43;;;;;;;;;;4147329;28;20058;-41
2022/08/21 12:18:30;;;;;;;0.77;0.50;;;;;;;;;;4145796;28;20061;-42
2022/08/21 12:20:55;;;;;;;1.13;0.52;;;;;;;;;;4145910;28;20062;-41
2022/08/21 12:23:17;;;;;;;0.68;0.40;;;;;;;;;;4146995;28;20062;-42
2022/08/21 12:25:19;;;;;;;0.85;0.40;;;;;;;;;;4147203;28;20124;-41
2022/08/21 12:27:41;;;;;;;0.70;0.50;;;;;;;;;;4143942;28;20124;-42
2022/08/21 12:29:48;;;;;;;0.47;0.47;;;;;;;;;;4165313;28;20187;-41
2022/08/21 12:32:02;;;;;;;1.15;0.40;;;;;;;;;;4164164;28;20139;-41
2022/08/21 12:34:08;;;;;;;0.82;0.55;;;;;;;;;;4163828;28;20057;-41